createdAt,value
2022-08-10T00:00:35.220Z,5.05
2022-08-10T00:03:02.692Z,4.53
2022-08-10T00:05:43.900Z,4.60
2022-08-10T00:08:24.006Z,4.82
2022-08-10T00:10:55.766Z,4.32
2022-08-10T00:13:23.923Z,4.30
2022-08-10T00:15:53.804Z,4.17
2022-08-10T00:18:35.196Z,4.05
2022-08-10T00:21:05.312Z,4.40
2022-08-10T00:23:32.524Z,4.45
2022-08-10T00:25:59.522Z,4.28
2022-08-10T00:28:26.318Z,4.20
2022-08-10T00:30:53.341Z,4.20
2022-08-10T00:33:20.965Z,4.60
2022-08-10T00:35:48.249Z,4.35
2022-08-10T00:38:15.063Z,4.53
2022-08-10T00:40:41.946Z,4.40
2022-08-10T00:43:08.732Z,4.30
2022-08-10T00:45:36.373Z,4.30
2022-08-10T00:48:03.510Z,4.22
2022-08-10T00:50:30.967Z,4.32
2022-08-10T00:52:58.216Z,4.40
2022-08-10T00:55:25.679Z,4.10
2022-08-10T00:57:55.212Z,4.88
2022-08-10T01:00:23.626Z,4.10
2022-08-10T01:02:50.627Z,4.35
2022-08-10T01:05:20.246Z,4.73
2022-08-10T01:08:07.814Z,4.22
2022-08-10T01:10:47.243Z,4.22
2022-08-10T01:13:36.063Z,4.40
2022-08-10T01:16:15.502Z,3.95
2022-08-10T01:19:15.411Z,4.50
2022-08-10T01:22:03.324Z,4.30
2022-08-10T01:24:54.082Z,4.18
2022-08-10T01:27:57.260Z,4.20
2022-08-10T01:30:28.706Z,4.35
2022-08-10T01:33:07.537Z,3.97
2022-08-10T01:35:55.153Z,4.13
2022-08-10T01:38:31.679Z,4.20
2022-08-10T01:41:47.584Z,4.22
2022-08-10T01:44:20.033Z,4.20
2022-08-10T01:46:56.627Z,4.83
2022-08-10T01:49:24.872Z,4.50
2022-08-10T01:52:00.425Z,4.20
2022-08-10T01:54:30.201Z,3.90
2022-08-10T01:56:58.943Z,4.38
2022-08-10T01:59:33.967Z,4.20
2022-08-10T02:02:04.971Z,4.38
2022-08-10T02:04:36.008Z,4.40
2022-08-10T02:07:03.595Z,4.82
2022-08-10T02:09:38.389Z,4.50
2022-08-10T02:12:11.223Z,4.37
2022-08-10T02:14:44.599Z,4.13
2022-08-10T02:18:00.083Z,4.45
2022-08-10T02:20:35.565Z,3.95
2022-08-10T02:23:08.733Z,4.30
2022-08-10T02:25:42.485Z,4.50
2022-08-10T02:28:29.704Z,4.20
2022-08-10T02:31:06.917Z,4.50
2022-08-10T02:33:38.814Z,4.00
2022-08-10T02:36:26.703Z,4.47
2022-08-10T02:39:00.484Z,3.67
2022-08-10T02:45:02.062Z,4.40
2022-08-10T02:45:19.338Z,4.43
2022-08-10T02:48:01.271Z,3.60
2022-08-10T02:50:34.803Z,3.97
2022-08-10T02:53:54.263Z,4.00
2022-08-10T02:56:03.174Z,4.05
2022-08-10T02:58:37.359Z,3.97
2022-08-10T03:01:09.006Z,3.88
2022-08-10T03:03:45.417Z,4.80
2022-08-10T03:06:16.303Z,4.60
2022-08-10T03:08:46.679Z,4.40
2022-08-10T03:12:36.685Z,4.45
2022-08-10T03:14:14.544Z,4.80
2022-08-10T03:16:42.103Z,4.50
2022-08-10T03:20:34.626Z,4.80
2022-08-10T03:21:58.078Z,5.15
2022-08-10T03:24:32.592Z,5.55
2022-08-10T03:27:04.342Z,4.95
2022-08-10T03:30:31.822Z,5.75
2022-08-10T03:32:20.756Z,6.93
2022-08-10T03:34:48.174Z,6.40
2022-08-10T03:37:15.114Z,6.10
2022-08-10T03:39:42.085Z,6.75
2022-08-10T03:42:12.913Z,6.40
2022-08-10T03:44:49.885Z,6.50
2022-08-10T03:47:19.443Z,6.18
2022-08-10T03:49:48.546Z,6.32
2022-08-10T03:52:17.181Z,6.47
2022-08-10T03:54:44.715Z,6.50
2022-08-10T03:57:12.283Z,6.83
2022-08-10T03:59:39.597Z,6.40
2022-08-10T04:02:44.711Z,6.18
2022-08-10T04:04:53.902Z,5.75
2022-08-10T04:07:21.175Z,4.88
2022-08-10T04:09:55.636Z,5.47
2022-08-10T04:12:24.143Z,5.45
2022-08-10T04:14:52.754Z,5.30
2022-08-10T04:17:57.478Z,5.25
2022-08-10T04:20:34.964Z,4.93
2022-08-10T04:23:08.024Z,4.20
2022-08-10T04:25:36.378Z,4.05
2022-08-10T04:28:03.924Z,4.30
2022-08-10T04:30:32.455Z,3.60
2022-08-10T04:33:02.792Z,4.30
2022-08-10T04:35:31.094Z,4.37
2022-08-10T04:37:59.292Z,3.60
2022-08-10T04:40:30.173Z,3.03
2022-08-10T04:43:02.361Z,3.30
2022-08-10T04:45:49.322Z,3.35
2022-08-10T04:48:42.243Z,4.00
2022-08-10T04:51:06.691Z,3.78
2022-08-10T04:53:34.214Z,3.38
2022-08-10T04:56:21.046Z,2.92
2022-08-10T04:58:59.221Z,3.33
2022-08-10T05:01:26.840Z,2.90
2022-08-10T05:04:38.372Z,2.92
2022-08-10T05:06:51.802Z,3.03
2022-08-10T05:09:18.560Z,3.30
2022-08-10T05:11:45.488Z,3.60
2022-08-10T05:14:12.205Z,3.47
2022-08-10T05:16:38.955Z,4.07
2022-08-10T05:19:05.835Z,3.92
2022-08-10T05:22:03.143Z,4.10
2022-08-10T05:24:19.434Z,4.05
2022-08-10T05:27:00.455Z,4.30
2022-08-10T05:29:33.395Z,3.85
2022-08-10T05:32:00.554Z,3.47
2022-08-10T05:34:28.743Z,3.20
2022-08-10T05:36:56.078Z,2.75
2022-08-10T05:39:30.253Z,3.00
2022-08-10T05:42:01.277Z,3.33
2022-08-10T05:44:29.550Z,2.90
2022-08-10T05:46:56.683Z,3.17
2022-08-10T05:49:23.683Z,3.17
2022-08-10T05:51:51.325Z,3.27
2022-08-10T05:54:18.313Z,2.97
2022-08-10T05:56:56.100Z,2.90
2022-08-10T06:00:33.323Z,2.90
2022-08-10T06:02:30.967Z,2.70
2022-08-10T06:05:12.330Z,3.00
2022-08-10T06:07:47.802Z,2.95
2022-08-10T06:10:31.478Z,2.92
2022-08-10T06:13:30.798Z,3.10
2022-08-10T06:16:04.779Z,2.90
2022-08-10T06:18:32.331Z,3.10
2022-08-10T06:21:00.604Z,3.20
2022-08-10T06:23:30.079Z,3.40
2022-08-10T06:26:12.119Z,3.10
2022-08-10T06:29:06.990Z,3.20
2022-08-10T06:31:48.846Z,2.90
2022-08-10T06:34:41.973Z,3.00
2022-08-10T06:37:10.719Z,2.65
2022-08-10T06:39:37.695Z,3.10
2022-08-10T06:42:18.546Z,2.92
2022-08-10T06:44:51.504Z,2.90
2022-08-10T06:47:23.151Z,3.30
2022-08-10T06:49:54.265Z,2.85
2022-08-10T06:52:30.889Z,3.40
2022-08-10T06:54:58.903Z,3.58
2022-08-10T06:57:31.042Z,4.00
2022-08-10T07:00:01.024Z,3.90
2022-08-10T07:02:47.442Z,4.40
2022-08-10T07:05:19.654Z,4.10
2022-08-10T07:07:50.617Z,3.70
2022-08-10T07:10:20.808Z,4.27
2022-08-10T07:12:50.280Z,3.92
2022-08-10T07:15:18.370Z,4.10
2022-08-10T07:17:46.882Z,3.40
2022-08-10T07:20:21.415Z,3.90
2022-08-10T07:23:55.677Z,3.70
2022-08-10T07:25:42.422Z,3.60
2022-08-10T07:28:10.397Z,3.70
2022-08-10T07:30:39.128Z,4.05
2022-08-10T07:33:07.427Z,3.42
2022-08-10T07:35:43.224Z,3.50
2022-08-10T07:38:27.076Z,3.55
2022-08-10T07:40:54.619Z,4.00
2022-08-10T07:43:24.219Z,3.03
2022-08-10T07:45:51.875Z,3.90
2022-08-10T07:48:31.282Z,3.77
2022-08-10T07:51:02.051Z,3.72
2022-08-10T07:53:33.835Z,3.42
2022-08-10T07:56:13.378Z,3.25
2022-08-10T07:58:54.125Z,3.42
2022-08-10T08:01:24.445Z,3.70
2022-08-10T08:04:04.919Z,3.05
2022-08-10T08:06:38.192Z,3.40
2022-08-10T08:09:05.959Z,3.42
2022-08-10T08:11:33.845Z,2.88
2022-08-10T08:14:01.972Z,3.60
2022-08-10T08:16:29.951Z,3.42
2022-08-10T08:24:07.236Z,3.08
2022-08-10T08:24:35.615Z,3.17
2022-08-10T08:27:04.469Z,3.13
2022-08-10T08:29:36.911Z,3.33
2022-08-10T08:32:05.082Z,3.50
2022-08-10T08:34:33.496Z,3.50
2022-08-10T08:37:04.482Z,2.60
2022-08-10T08:39:33.616Z,3.23
2022-08-10T08:42:30.762Z,3.35
2022-08-10T08:45:06.303Z,3.10
2022-08-10T08:48:04.362Z,3.90
2022-08-10T08:51:08.326Z,3.17
2022-08-10T08:54:01.287Z,3.00
2022-08-10T08:57:03.328Z,3.08
2022-08-10T08:59:57.313Z,2.72
2022-08-10T09:02:36.059Z,3.03
2022-08-10T09:05:24.285Z,2.95
2022-08-10T09:08:17.658Z,2.77
2022-08-10T09:11:05.823Z,2.95
2022-08-10T09:13:41.007Z,2.67
2022-08-10T09:16:29.943Z,2.97
2022-08-10T09:18:59.254Z,2.80
2022-08-10T09:21:52.351Z,2.80
2022-08-10T09:24:58.696Z,2.80
2022-08-10T09:27:35.270Z,2.72
2022-08-10T09:30:06.371Z,2.90
2022-08-10T09:36:15.895Z,2.60
2022-08-10T09:36:25.757Z,2.80
2022-08-10T09:40:56.714Z,2.67
2022-08-10T09:42:29.928Z,2.10
2022-08-10T09:45:03.780Z,2.60
2022-08-10T09:48:01.407Z,2.40
2022-08-10T09:50:47.618Z,3.07
2022-08-10T09:53:24.623Z,2.67
2022-08-10T09:56:36.473Z,2.30
2022-08-10T10:00:00.665Z,2.10
2022-08-10T10:02:39.052Z,2.45
2022-08-10T10:05:14.660Z,2.20
2022-08-10T10:07:48.994Z,2.55
2022-08-10T10:10:47.691Z,2.78
2022-08-10T10:13:58.450Z,2.53
2022-08-10T10:16:14.227Z,3.15
2022-08-10T10:19:04.388Z,2.50
2022-08-10T10:22:15.890Z,2.80
2022-08-10T10:24:57.064Z,2.70
2022-08-10T10:27:40.685Z,2.40
2022-08-10T10:30:10.709Z,2.63
2022-08-10T10:32:58.247Z,2.70
2022-08-10T10:35:41.190Z,2.25
2022-08-10T10:38:11.760Z,2.40
2022-08-10T10:41:01.661Z,2.30
2022-08-10T10:43:50.244Z,2.92
2022-08-10T10:46:40.479Z,2.53
2022-08-10T10:49:28.708Z,2.97
2022-08-10T10:52:25.211Z,2.30
2022-08-10T10:55:14.167Z,2.50
2022-08-10T10:58:01.068Z,2.50
2022-08-10T11:00:46.273Z,2.50
2022-08-10T11:03:30.658Z,2.80
2022-08-10T11:06:09.863Z,2.50
2022-08-10T11:08:43.413Z,2.83
2022-08-10T11:11:59.793Z,2.10
2022-08-10T11:14:29.509Z,2.20
2022-08-10T11:17:17.391Z,2.03
2022-08-10T11:20:11.898Z,2.03
2022-08-10T11:22:51.259Z,2.13
2022-08-10T11:25:20.900Z,2.47
2022-08-10T11:28:10.692Z,2.13
2022-08-10T11:30:47.954Z,2.47
2022-08-10T11:33:31.121Z,2.20
2022-08-10T11:36:08.927Z,2.35
2022-08-10T11:39:12.941Z,2.13
2022-08-10T11:42:10.113Z,2.20
2022-08-10T11:45:17.524Z,1.95
2022-08-10T11:47:53.049Z,2.70
2022-08-10T11:50:34.861Z,2.00
2022-08-10T11:53:15.915Z,2.20
2022-08-10T11:55:49.265Z,2.60
2022-08-10T11:58:36.755Z,2.47
2022-08-10T12:01:06.766Z,2.17
2022-08-10T12:03:37.550Z,2.13
2022-08-10T12:06:08.547Z,2.42
2022-08-10T12:10:06.365Z,2.47
2022-08-10T12:11:26.520Z,2.15
2022-08-10T12:14:19.706Z,2.13
2022-08-10T12:16:48.571Z,2.20
2022-08-10T12:19:28.226Z,2.25
2022-08-10T12:22:07.402Z,2.00
2022-08-10T12:25:07.530Z,2.30
2022-08-10T12:27:54.882Z,2.58
2022-08-10T12:30:32.346Z,2.47
2022-08-10T12:33:11.011Z,2.22
2022-08-10T12:36:14.966Z,1.97
2022-08-10T12:38:58.518Z,2.42
2022-08-10T12:41:44.377Z,2.10
2022-08-10T12:44:18.252Z,2.65
2022-08-10T12:47:14.773Z,2.30
2022-08-10T12:50:26.675Z,2.63
2022-08-10T12:53:10.335Z,2.97
2022-08-10T12:55:38.924Z,2.50
2022-08-10T12:58:58.743Z,2.47
2022-08-10T13:01:15.567Z,2.40
2022-08-10T13:04:21.733Z,2.30
2022-08-10T13:06:37.696Z,2.97
2022-08-10T13:09:11.043Z,2.70
2022-08-10T13:12:35.230Z,2.65
2022-08-10T13:14:46.412Z,2.08
2022-08-10T13:17:14.513Z,2.47
2022-08-10T13:19:55.121Z,2.35
2022-08-10T13:22:27.526Z,2.60
2022-08-10T13:25:00.170Z,2.80
2022-08-10T13:28:01.262Z,2.67
2022-08-10T13:30:37.477Z,2.80
2022-08-10T13:33:07.308Z,2.33
2022-08-10T13:35:36.374Z,2.72
2022-08-10T13:38:06.074Z,2.60
2022-08-10T13:40:33.443Z,2.47
2022-08-10T13:43:01.861Z,2.70
2022-08-10T13:45:29.483Z,2.20
2022-08-10T13:48:14.709Z,2.70
2022-08-10T13:50:42.449Z,2.65
2022-08-10T13:53:15.186Z,2.30
2022-08-10T13:55:54.388Z,2.57
2022-08-10T13:58:44.074Z,2.65
2022-08-10T14:01:15.345Z,2.28
2022-08-10T14:03:44.310Z,2.10
2022-08-10T14:06:14.643Z,2.58
2022-08-10T14:08:48.238Z,2.43
2022-08-10T14:11:18.138Z,2.13
2022-08-10T14:13:57.396Z,3.00
2022-08-10T14:16:25.260Z,2.67
2022-08-10T14:18:54.968Z,2.63
2022-08-10T14:21:22.246Z,2.50
2022-08-10T14:23:53.094Z,2.10
2022-08-10T14:26:28.203Z,2.13
2022-08-10T14:29:04.507Z,2.30
2022-08-10T14:31:34.138Z,2.47
2022-08-10T14:34:03.795Z,2.63
2022-08-10T14:36:56.300Z,2.50
2022-08-10T14:39:41.266Z,2.50
2022-08-10T14:42:24.107Z,2.53
2022-08-10T14:44:58.295Z,2.38
2022-08-10T14:47:52.606Z,2.70
2022-08-10T14:50:32.622Z,2.50
2022-08-10T14:53:34.645Z,2.50
2022-08-10T14:56:09.720Z,2.25
2022-08-10T14:59:05.370Z,2.50
2022-08-10T15:02:01.035Z,2.80
2022-08-10T15:04:28.725Z,2.28
2022-08-10T15:07:32.745Z,2.53
2022-08-10T15:10:04.344Z,2.30
2022-08-10T15:12:35.116Z,2.47
2022-08-10T15:15:04.947Z,2.30
2022-08-10T15:17:37.508Z,2.40
2022-08-10T15:20:13.963Z,2.60
2022-08-10T15:22:47.341Z,2.55
2022-08-10T15:25:25.064Z,2.17
2022-08-10T15:28:05.249Z,2.70
2022-08-10T15:30:39.745Z,2.17
2022-08-10T15:34:00.262Z,2.50
2022-08-10T15:36:37.329Z,2.50
2022-08-10T15:40:23.743Z,2.78
2022-08-10T15:42:11.220Z,2.40
2022-08-10T15:44:43.568Z,2.03
2022-08-10T15:47:22.362Z,2.25
2022-08-10T15:50:22.331Z,2.13
2022-08-10T15:53:02.163Z,2.22
2022-08-10T15:55:45.994Z,2.20
2022-08-10T15:58:39.608Z,2.55
2022-08-10T16:02:13.811Z,2.20
2022-08-10T16:04:08.316Z,2.45
2022-08-10T16:06:43.871Z,2.90
2022-08-10T16:10:23.980Z,1.93
2022-08-10T16:12:30.116Z,2.80
2022-08-10T16:15:04.448Z,2.40
2022-08-10T16:17:55.024Z,2.58
2022-08-10T16:20:31.254Z,2.50
2022-08-10T16:23:02.278Z,2.20
2022-08-10T16:25:48.241Z,2.58
2022-08-10T16:28:23.263Z,2.40
2022-08-10T16:30:55.859Z,2.60
2022-08-10T16:33:53.561Z,2.22
2022-08-10T16:36:17.553Z,2.50
2022-08-10T16:38:48.297Z,4.00
2022-08-10T16:42:00.336Z,3.78
2022-08-10T16:44:06.081Z,2.90
2022-08-10T16:46:34.796Z,2.60
2022-08-10T16:49:02.682Z,2.43
2022-08-10T16:51:31.718Z,2.40
2022-08-10T16:54:02.316Z,1.90
2022-08-10T16:56:47.676Z,2.05
2022-08-10T16:59:21.051Z,2.17
2022-08-10T17:01:53.957Z,2.30
2022-08-10T17:04:23.402Z,2.83
2022-08-10T17:06:57.065Z,2.33
2022-08-10T17:09:32.089Z,2.30
2022-08-10T17:12:06.029Z,2.38
2022-08-10T17:14:32.845Z,2.33
2022-08-10T17:17:07.715Z,2.47
2022-08-10T17:19:41.056Z,2.22
2022-08-10T17:22:18.315Z,2.20
2022-08-10T17:25:13.087Z,2.47
2022-08-10T17:28:04.844Z,2.50
2022-08-10T17:30:35.390Z,2.30
2022-08-10T17:33:20.539Z,2.60
2022-08-10T17:35:49.387Z,2.08
2022-08-10T17:38:30.133Z,2.30
2022-08-10T17:41:04.134Z,2.33
2022-08-10T17:43:46.368Z,2.40
2022-08-10T17:46:25.058Z,2.42
2022-08-10T17:48:54.791Z,2.50
2022-08-10T17:51:24.542Z,2.58
2022-08-10T17:53:57.736Z,2.03
2022-08-10T17:56:25.604Z,2.35
2022-08-10T17:59:02.582Z,2.75
2022-08-10T18:01:41.322Z,2.30
2022-08-10T18:04:21.162Z,2.00
2022-08-10T18:06:58.960Z,2.30
2022-08-10T18:09:52.402Z,1.95
2022-08-10T18:12:38.543Z,2.50
2022-08-10T18:15:13.868Z,2.20
2022-08-10T18:17:45.950Z,2.65
2022-08-10T18:20:20.119Z,2.67
2022-08-10T18:22:55.965Z,2.40
2022-08-10T18:25:26.916Z,2.33
2022-08-10T18:28:04.813Z,2.38
2022-08-10T18:30:36.163Z,2.20
2022-08-10T18:33:08.599Z,2.60
2022-08-10T18:35:35.911Z,2.63
2022-08-10T18:38:04.971Z,2.47
2022-08-10T18:40:36.535Z,2.30
2022-08-10T18:44:02.850Z,2.30
2022-08-10T18:45:56.929Z,2.37
2022-08-10T18:48:33.209Z,2.67
2022-08-10T18:51:05.970Z,2.10
2022-08-10T18:53:48.152Z,1.90
2022-08-10T18:56:32.082Z,2.10
2022-08-10T18:59:08.615Z,2.20
2022-08-10T19:02:20.500Z,2.22
2022-08-10T19:05:30.239Z,2.28
2022-08-10T19:08:36.020Z,2.50
2022-08-10T19:11:11.508Z,2.38
2022-08-10T19:13:50.580Z,2.13
2022-08-10T19:16:38.546Z,2.35
2022-08-10T19:19:29.138Z,2.15
2022-08-10T19:22:37.567Z,2.00
2022-08-10T19:25:14.918Z,2.28
2022-08-10T19:27:48.817Z,2.73
2022-08-10T19:30:17.744Z,2.05
2022-08-10T19:32:55.169Z,2.20
2022-08-10T19:36:03.359Z,2.35
2022-08-10T19:38:36.085Z,2.30
2022-08-10T19:41:44.893Z,2.00
2022-08-10T19:44:36.065Z,1.92
2022-08-10T19:47:12.001Z,2.20
2022-08-10T19:49:43.905Z,2.33
2022-08-10T19:52:32.542Z,2.35
2022-08-10T19:55:25.198Z,2.40
2022-08-10T19:58:05.732Z,2.33
2022-08-10T20:00:58.031Z,2.45
2022-08-10T20:03:46.210Z,2.78
2022-08-10T20:06:25.018Z,2.53
2022-08-10T20:09:06.742Z,2.77
2022-08-10T20:11:56.973Z,2.55
2022-08-10T20:15:07.503Z,2.65
2022-08-10T20:17:51.045Z,2.75
2022-08-10T20:20:30.667Z,2.45
2022-08-10T20:23:19.035Z,2.47
2022-08-10T20:26:00.600Z,2.53
2022-08-10T20:28:42.528Z,2.70
2022-08-10T20:31:27.388Z,2.78
2022-08-10T20:34:01.605Z,3.50
2022-08-10T20:36:31.221Z,2.73
2022-08-10T20:39:09.828Z,2.50
2022-08-10T20:42:13.633Z,2.78
2022-08-10T20:44:50.783Z,2.90
2022-08-10T20:47:53.863Z,2.88
2022-08-10T20:50:40.182Z,2.63
2022-08-10T20:53:11.451Z,2.90
2022-08-10T20:56:08.359Z,2.95
2022-08-10T20:58:56.494Z,2.90
2022-08-10T21:02:07.109Z,3.08
2022-08-10T21:04:55.455Z,2.83
2022-08-10T21:08:00.050Z,3.10
2022-08-10T21:10:32.843Z,3.10
2022-08-10T21:13:14.540Z,3.08
2022-08-10T21:16:12.052Z,3.10
2022-08-10T21:19:02.113Z,3.30
2022-08-10T21:21:59.333Z,2.90
2022-08-10T21:24:34.500Z,3.30
2022-08-10T21:27:22.526Z,3.08
2022-08-10T21:30:08.955Z,3.40
2022-08-10T21:32:54.598Z,3.10
2022-08-10T21:35:36.557Z,3.00
2022-08-10T21:38:26.770Z,3.05
2022-08-10T21:41:57.135Z,3.10
2022-08-10T21:45:59.902Z,3.08
2022-08-10T21:49:17.440Z,3.17
2022-08-10T21:52:25.692Z,2.90
2022-08-10T21:55:24.160Z,3.20
2022-08-10T21:58:50.307Z,3.30
2022-08-10T22:01:44.205Z,3.30
2022-08-10T22:04:29.946Z,3.07
2022-08-10T22:07:17.896Z,3.28
2022-08-10T22:10:08.891Z,3.47
2022-08-10T22:13:01.679Z,3.50
2022-08-10T22:16:05.430Z,3.38
2022-08-10T22:19:04.512Z,3.57
2022-08-10T22:22:27.515Z,3.50
2022-08-10T22:25:28.970Z,3.75
2022-08-10T22:28:18.134Z,3.20
2022-08-10T22:31:30.726Z,3.58
2022-08-10T22:34:17.056Z,3.70
2022-08-10T22:37:14.542Z,3.50
2022-08-10T22:40:14.303Z,3.75
2022-08-10T22:43:11.186Z,3.55
2022-08-10T22:46:09.455Z,3.28
2022-08-10T22:48:59.561Z,3.60
2022-08-10T22:51:42.305Z,3.60
2022-08-10T22:54:33.548Z,3.40
2022-08-10T22:57:21.313Z,3.75
2022-08-10T22:59:49.533Z,3.17
2022-08-10T23:02:30.917Z,3.47
2022-08-10T23:05:10.362Z,3.10
2022-08-10T23:07:49.850Z,3.97
2022-08-10T23:10:20.294Z,3.88
2022-08-10T23:13:11.921Z,3.53
2022-08-10T23:16:12.663Z,3.63
2022-08-10T23:19:02.347Z,3.50
2022-08-10T23:22:02.841Z,4.03
2022-08-10T23:24:36.194Z,3.65
2022-08-10T23:27:12.378Z,3.72
2022-08-10T23:30:09.266Z,3.80
2022-08-10T23:32:44.768Z,4.00
2022-08-10T23:36:13.064Z,3.83
2022-08-10T23:38:06.374Z,3.80
2022-08-10T23:40:35.307Z,4.43
2022-08-10T23:43:04.816Z,4.07
2022-08-10T23:45:53.607Z,3.97
2022-08-10T23:48:23.099Z,3.72
2022-08-10T23:50:58.623Z,3.95
2022-08-10T23:53:32.969Z,4.03
2022-08-10T23:56:22.124Z,3.90
2022-08-10T23:58:57.053Z,3.75
